sensor_id;sensor_type;location;lat;lon;timestamp;temperature;humidity
52034;DHT22;38045;52.988;6.536;2023-04-15T00:01:59;8.30;99.90
52034;DHT22;38045;52.988;6.536;2023-04-15T00:04:26;8.30;99.90
52034;DHT22;38045;52.988;6.536;2023-04-15T00:06:52;8.30;99.90
52034;DHT22;38045;52.988;6.536;2023-04-15T00:09:18;8.20;99.90
52034;DHT22;38045;52.988;6.536;2023-04-15T00:11:44;8.20;99.90
52034;DHT22;38045;52.988;6.536;2023-04-15T00:14:13;8.20;99.90
52034;DHT22;38045;52.988;6.536;2023-04-15T00:16:39;8.20;99.90
52034;DHT22;38045;52.988;6.536;2023-04-15T00:19:05;8.10;99.90
52034;DHT22;38045;52.988;6.536;2023-04-15T00:21:31;8.10;99.90
52034;DHT22;38045;52.988;6.536;2023-04-15T00:23:57;8.10;99.90
52034;DHT22;38045;52.988;6.536;2023-04-15T00:26:22;8.10;99.90
52034;DHT22;38045;52.988;6.536;2023-04-15T00:28:48;8.00;99.90
52034;DHT22;38045;52.988;6.536;2023-04-15T00:31:13;8.00;99.90
52034;DHT22;38045;52.988;6.536;2023-04-15T00:33:39;8.00;99.90
52034;DHT22;38045;52.988;6.536;2023-04-15T00:36:06;7.90;99.90
52034;DHT22;38045;52.988;6.536;2023-04-15T00:38:31;7.90;99.90
52034;DHT22;38045;52.988;6.536;2023-04-15T00:40:58;7.90;99.90
52034;DHT22;38045;52.988;6.536;2023-04-15T00:43:23;7.90;99.90
52034;DHT22;38045;52.988;6.536;2023-04-15T00:45:51;7.90;99.90
52034;DHT22;38045;52.988;6.536;2023-04-15T00:48:18;7.80;99.90
52034;DHT22;38045;52.988;6.536;2023-04-15T00:50:44;7.80;99.90
52034;DHT22;38045;52.988;6.536;2023-04-15T00:53:09;7.80;99.90
52034;DHT22;38045;52.988;6.536;2023-04-15T00:55:36;7.70;99.90
52034;DHT22;38045;52.988;6.536;2023-04-15T00:58:02;7.60;99.90
52034;DHT22;38045;52.988;6.536;2023-04-15T01:00:28;7.60;99.90
52034;DHT22;38045;52.988;6.536;2023-04-15T01:02:54;7.50;99.90
52034;DHT22;38045;52.988;6.536;2023-04-15T01:05:20;7.60;99.90
52034;DHT22;38045;52.988;6.536;2023-04-15T01:07:46;7.50;99.90
52034;DHT22;38045;52.988;6.536;2023-04-15T01:10:12;7.50;99.90
52034;DHT22;38045;52.988;6.536;2023-04-15T01:12:38;7.50;99.90
52034;DHT22;38045;52.988;6.536;2023-04-15T01:15:05;7.50;99.90
52034;DHT22;38045;52.988;6.536;2023-04-15T01:17:31;7.50;99.90
52034;DHT22;38045;52.988;6.536;2023-04-15T01:19:57;7.40;99.90
52034;DHT22;38045;52.988;6.536;2023-04-15T01:22:24;7.40;99.90
52034;DHT22;38045;52.988;6.536;2023-04-15T01:25:00;7.40;99.90
52034;DHT22;38045;52.988;6.536;2023-04-15T01:27:29;7.40;99.90
52034;DHT22;38045;52.988;6.536;2023-04-15T01:29:55;7.40;99.90
52034;DHT22;38045;52.988;6.536;2023-04-15T01:32:21;7.30;99.90
52034;DHT22;38045;52.988;6.536;2023-04-15T01:34:47;7.30;99.90
52034;DHT22;38045;52.988;6.536;2023-04-15T01:37:12;7.30;99.90
52034;DHT22;38045;52.988;6.536;2023-04-15T01:39:38;7.30;99.90
52034;DHT22;38045;52.988;6.536;2023-04-15T01:42:03;7.30;99.90
52034;DHT22;38045;52.988;6.536;2023-04-15T01:44:29;7.20;99.90
52034;DHT22;38045;52.988;6.536;2023-04-15T01:46:55;7.20;99.90
52034;DHT22;38045;52.988;6.536;2023-04-15T01:49:20;7.10;99.90
52034;DHT22;38045;52.988;6.536;2023-04-15T01:51:46;7.10;99.90
52034;DHT22;38045;52.988;6.536;2023-04-15T01:54:12;7.10;99.90
52034;DHT22;38045;52.988;6.536;2023-04-15T01:56:37;7.10;99.90
52034;DHT22;38045;52.988;6.536;2023-04-15T01:59:03;7.10;99.90
52034;DHT22;38045;52.988;6.536;2023-04-15T02:01:29;7.00;99.90
52034;DHT22;38045;52.988;6.536;2023-04-15T02:03:54;7.00;99.90
52034;DHT22;38045;52.988;6.536;2023-04-15T02:06:21;7.00;99.90
52034;DHT22;38045;52.988;6.536;2023-04-15T02:08:46;7.00;99.90
52034;DHT22;38045;52.988;6.536;2023-04-15T02:11:12;7.00;99.90
52034;DHT22;38045;52.988;6.536;2023-04-15T02:13:37;7.00;99.90
52034;DHT22;38045;52.988;6.536;2023-04-15T02:16:03;7.00;99.90
52034;DHT22;38045;52.988;6.536;2023-04-15T02:18:29;6.90;99.90
52034;DHT22;38045;52.988;6.536;2023-04-15T02:20:54;6.90;99.90
52034;DHT22;38045;52.988;6.536;2023-04-15T02:23:23;6.90;99.90
52034;DHT22;38045;52.988;6.536;2023-04-15T02:25:48;6.90;99.90
52034;DHT22;38045;52.988;6.536;2023-04-15T02:28:14;6.90;99.90
52034;DHT22;38045;52.988;6.536;2023-04-15T02:30:39;6.90;99.90
52034;DHT22;38045;52.988;6.536;2023-04-15T02:33:05;6.90;99.90
52034;DHT22;38045;52.988;6.536;2023-04-15T02:35:32;6.80;99.90
52034;DHT22;38045;52.988;6.536;2023-04-15T02:37:57;6.80;99.90
52034;DHT22;38045;52.988;6.536;2023-04-15T02:40:23;6.80;99.90
52034;DHT22;38045;52.988;6.536;2023-04-15T02:42:48;6.80;99.90
52034;DHT22;38045;52.988;6.536;2023-04-15T02:45:14;6.80;99.90
52034;DHT22;38045;52.988;6.536;2023-04-15T02:47:40;6.80;99.90
52034;DHT22;38045;52.988;6.536;2023-04-15T02:50:11;6.70;99.90
52034;DHT22;38045;52.988;6.536;2023-04-15T02:52:39;6.70;99.90
52034;DHT22;38045;52.988;6.536;2023-04-15T02:55:06;6.70;99.90
52034;DHT22;38045;52.988;6.536;2023-04-15T02:57:32;6.60;99.90
52034;DHT22;38045;52.988;6.536;2023-04-15T02:59:59;6.60;99.90
52034;DHT22;38045;52.988;6.536;2023-04-15T03:02:25;6.60;99.90
52034;DHT22;38045;52.988;6.536;2023-04-15T03:04:50;6.60;99.90
52034;DHT22;38045;52.988;6.536;2023-04-15T03:07:17;6.50;99.90
52034;DHT22;38045;52.988;6.536;2023-04-15T03:09:43;6.50;99.90
52034;DHT22;38045;52.988;6.536;2023-04-15T03:12:09;6.50;99.90
52034;DHT22;38045;52.988;6.536;2023-04-15T03:14:34;6.40;99.90
52034;DHT22;38045;52.988;6.536;2023-04-15T03:17:00;6.40;99.90
52034;DHT22;38045;52.988;6.536;2023-04-15T03:19:26;6.40;99.90
52034;DHT22;38045;52.988;6.536;2023-04-15T03:21:51;6.40;99.90
52034;DHT22;38045;52.988;6.536;2023-04-15T03:24:17;6.30;99.90
52034;DHT22;38045;52.988;6.536;2023-04-15T03:26:43;6.30;99.90
52034;DHT22;38045;52.988;6.536;2023-04-15T03:29:08;6.30;99.90
52034;DHT22;38045;52.988;6.536;2023-04-15T03:31:34;6.30;99.90
52034;DHT22;38045;52.988;6.536;2023-04-15T03:34:00;6.20;99.90
52034;DHT22;38045;52.988;6.536;2023-04-15T03:36:27;6.20;99.90
52034;DHT22;38045;52.988;6.536;2023-04-15T03:38:53;6.20;99.90
52034;DHT22;38045;52.988;6.536;2023-04-15T03:41:20;6.20;99.90
52034;DHT22;38045;52.988;6.536;2023-04-15T03:43:45;6.20;99.90
52034;DHT22;38045;52.988;6.536;2023-04-15T03:46:11;6.20;99.90
52034;DHT22;38045;52.988;6.536;2023-04-15T03:48:37;6.10;99.90
52034;DHT22;38045;52.988;6.536;2023-04-15T03:51:02;6.10;99.90
52034;DHT22;38045;52.988;6.536;2023-04-15T03:53:28;6.10;99.90
52034;DHT22;38045;52.988;6.536;2023-04-15T03:55:53;6.10;99.90
52034;DHT22;38045;52.988;6.536;2023-04-15T03:58:19;6.10;99.90
52034;DHT22;38045;52.988;6.536;2023-04-15T04:00:45;6.10;99.90
52034;DHT22;38045;52.988;6.536;2023-04-15T04:03:10;6.10;99.90
52034;DHT22;38045;52.988;6.536;2023-04-15T04:05:36;6.10;99.90
52034;DHT22;38045;52.988;6.536;2023-04-15T04:08:03;6.00;99.90
52034;DHT22;38045;52.988;6.536;2023-04-15T04:10:29;6.00;99.90
52034;DHT22;38045;52.988;6.536;2023-04-15T04:12:54;6.00;99.90
52034;DHT22;38045;52.988;6.536;2023-04-15T04:15:20;6.00;99.90
52034;DHT22;38045;52.988;6.536;2023-04-15T04:17:45;6.00;99.90
52034;DHT22;38045;52.988;6.536;2023-04-15T04:20:11;6.00;99.90
52034;DHT22;38045;52.988;6.536;2023-04-15T04:22:38;6.00;99.90
52034;DHT22;38045;52.988;6.536;2023-04-15T04:25:04;6.00;99.90
52034;DHT22;38045;52.988;6.536;2023-04-15T04:27:30;5.90;99.90
52034;DHT22;38045;52.988;6.536;2023-04-15T04:29:56;5.90;99.90
52034;DHT22;38045;52.988;6.536;2023-04-15T04:32:21;5.90;99.90
52034;DHT22;38045;52.988;6.536;2023-04-15T04:34:47;5.80;99.90
52034;DHT22;38045;52.988;6.536;2023-04-15T04:37:12;5.80;99.90
52034;DHT22;38045;52.988;6.536;2023-04-15T04:39:38;5.80;99.90
52034;DHT22;38045;52.988;6.536;2023-04-15T04:42:04;5.80;99.90
52034;DHT22;38045;52.988;6.536;2023-04-15T04:44:30;5.80;99.90
52034;DHT22;38045;52.988;6.536;2023-04-15T04:46:55;5.80;99.90
52034;DHT22;38045;52.988;6.536;2023-04-15T04:49:21;5.80;99.90
52034;DHT22;38045;52.988;6.536;2023-04-15T04:51:46;5.80;99.90
52034;DHT22;38045;52.988;6.536;2023-04-15T04:54:13;5.80;99.90
52034;DHT22;38045;52.988;6.536;2023-04-15T04:56:38;5.70;99.90
52034;DHT22;38045;52.988;6.536;2023-04-15T04:59:04;5.70;99.90
52034;DHT22;38045;52.988;6.536;2023-04-15T05:01:30;5.70;99.90
52034;DHT22;38045;52.988;6.536;2023-04-15T05:03:55;5.70;99.90
52034;DHT22;38045;52.988;6.536;2023-04-15T05:06:21;5.70;99.90
52034;DHT22;38045;52.988;6.536;2023-04-15T05:08:47;5.60;99.90
52034;DHT22;38045;52.988;6.536;2023-04-15T05:11:12;5.60;99.90
52034;DHT22;38045;52.988;6.536;2023-04-15T05:13:38;5.60;99.90
52034;DHT22;38045;52.988;6.536;2023-04-15T05:16:04;5.60;99.90
52034;DHT22;38045;52.988;6.536;2023-04-15T05:18:30;5.60;99.90
52034;DHT22;38045;52.988;6.536;2023-04-15T05:20:56;5.60;99.90
52034;DHT22;38045;52.988;6.536;2023-04-15T05:23:22;5.60;99.90
52034;DHT22;38045;52.988;6.536;2023-04-15T05:25:48;5.60;99.90
52034;DHT22;38045;52.988;6.536;2023-04-15T05:28:13;5.60;99.90
52034;DHT22;38045;52.988;6.536;2023-04-15T05:30:39;5.60;99.90
52034;DHT22;38045;52.988;6.536;2023-04-15T05:33:04;5.60;99.90
52034;DHT22;38045;52.988;6.536;2023-04-15T05:35:30;5.60;99.90
52034;DHT22;38045;52.988;6.536;2023-04-15T05:37:56;5.70;99.90
52034;DHT22;38045;52.988;6.536;2023-04-15T05:40:21;5.70;99.90
52034;DHT22;38045;52.988;6.536;2023-04-15T05:42:47;5.70;99.90
52034;DHT22;38045;52.988;6.536;2023-04-15T05:45:13;5.70;99.90
52034;DHT22;38045;52.988;6.536;2023-04-15T05:47:39;5.70;99.90
52034;DHT22;38045;52.988;6.536;2023-04-15T05:50:05;5.80;99.90
52034;DHT22;38045;52.988;6.536;2023-04-15T05:52:31;5.80;99.90
52034;DHT22;38045;52.988;6.536;2023-04-15T05:54:56;5.90;99.90
52034;DHT22;38045;52.988;6.536;2023-04-15T05:57:22;5.90;99.90
52034;DHT22;38045;52.988;6.536;2023-04-15T05:59:48;6.00;99.90
52034;DHT22;38045;52.988;6.536;2023-04-15T06:02:15;6.10;99.90
52034;DHT22;38045;52.988;6.536;2023-04-15T06:04:41;6.10;99.90
52034;DHT22;38045;52.988;6.536;2023-04-15T06:07:07;6.20;99.90
52034;DHT22;38045;52.988;6.536;2023-04-15T06:09:33;6.30;99.90
52034;DHT22;38045;52.988;6.536;2023-04-15T06:11:59;6.30;99.90
52034;DHT22;38045;52.988;6.536;2023-04-15T06:14:26;6.40;99.90
52034;DHT22;38045;52.988;6.536;2023-04-15T06:16:52;6.50;99.90
52034;DHT22;38045;52.988;6.536;2023-04-15T06:19:17;6.50;99.90
52034;DHT22;38045;52.988;6.536;2023-04-15T06:21:44;6.60;99.90
52034;DHT22;38045;52.988;6.536;2023-04-15T06:24:10;6.70;99.90
52034;DHT22;38045;52.988;6.536;2023-04-15T06:26:36;6.70;99.90
52034;DHT22;38045;52.988;6.536;2023-04-15T06:29:02;6.80;99.90
52034;DHT22;38045;52.988;6.536;2023-04-15T06:31:27;6.90;99.90
52034;DHT22;38045;52.988;6.536;2023-04-15T06:33:53;7.00;99.90
52034;DHT22;38045;52.988;6.536;2023-04-15T06:36:19;7.10;99.90
52034;DHT22;38045;52.988;6.536;2023-04-15T06:38:44;7.10;99.90
52034;DHT22;38045;52.988;6.536;2023-04-15T06:41:10;7.20;99.90
52034;DHT22;38045;52.988;6.536;2023-04-15T06:43:36;7.30;99.90
52034;DHT22;38045;52.988;6.536;2023-04-15T06:46:02;7.30;99.90
52034;DHT22;38045;52.988;6.536;2023-04-15T06:48:27;7.40;99.90
52034;DHT22;38045;52.988;6.536;2023-04-15T06:50:53;7.50;99.90
52034;DHT22;38045;52.988;6.536;2023-04-15T06:53:19;7.50;99.90
52034;DHT22;38045;52.988;6.536;2023-04-15T06:55:44;7.60;99.90
52034;DHT22;38045;52.988;6.536;2023-04-15T06:58:10;7.60;99.90
52034;DHT22;38045;52.988;6.536;2023-04-15T07:00:36;7.60;99.90
52034;DHT22;38045;52.988;6.536;2023-04-15T07:03:03;7.60;99.90
52034;DHT22;38045;52.988;6.536;2023-04-15T07:05:29;7.70;99.90
52034;DHT22;38045;52.988;6.536;2023-04-15T07:07:56;7.70;99.90
52034;DHT22;38045;52.988;6.536;2023-04-15T07:10:22;7.70;99.90
52034;DHT22;38045;52.988;6.536;2023-04-15T07:12:48;7.80;99.90
52034;DHT22;38045;52.988;6.536;2023-04-15T07:15:15;7.90;99.90
52034;DHT22;38045;52.988;6.536;2023-04-15T07:17:41;7.90;99.90
52034;DHT22;38045;52.988;6.536;2023-04-15T07:20:08;8.00;99.90
52034;DHT22;38045;52.988;6.536;2023-04-15T07:22:34;8.10;99.90
52034;DHT22;38045;52.988;6.536;2023-04-15T07:25:00;8.20;99.90
52034;DHT22;38045;52.988;6.536;2023-04-15T07:27:25;8.20;99.90
52034;DHT22;38045;52.988;6.536;2023-04-15T07:29:51;8.30;99.90
52034;DHT22;38045;52.988;6.536;2023-04-15T07:32:18;8.40;99.90
52034;DHT22;38045;52.988;6.536;2023-04-15T07:34:43;8.50;99.90
52034;DHT22;38045;52.988;6.536;2023-04-15T07:37:09;8.50;99.90
52034;DHT22;38045;52.988;6.536;2023-04-15T07:39:35;8.60;99.90
52034;DHT22;38045;52.988;6.536;2023-04-15T07:42:01;8.60;99.90
52034;DHT22;38045;52.988;6.536;2023-04-15T07:44:27;8.70;99.90
52034;DHT22;38045;52.988;6.536;2023-04-15T07:46:52;8.70;99.90
52034;DHT22;38045;52.988;6.536;2023-04-15T07:49:18;8.70;99.90
52034;DHT22;38045;52.988;6.536;2023-04-15T07:51:45;8.80;99.90
52034;DHT22;38045;52.988;6.536;2023-04-15T07:54:11;8.80;99.90
52034;DHT22;38045;52.988;6.536;2023-04-15T07:56:37;8.90;99.90
52034;DHT22;38045;52.988;6.536;2023-04-15T07:59:02;8.80;99.90
52034;DHT22;38045;52.988;6.536;2023-04-15T08:01:29;8.90;99.90
52034;DHT22;38045;52.988;6.536;2023-04-15T08:03:55;8.90;99.90
52034;DHT22;38045;52.988;6.536;2023-04-15T08:06:22;8.90;99.90
52034;DHT22;38045;52.988;6.536;2023-04-15T08:08:48;9.40;99.90
52034;DHT22;38045;52.988;6.536;2023-04-15T08:11:13;9.00;99.90
52034;DHT22;38045;52.988;6.536;2023-04-15T08:13:39;9.00;99.90
52034;DHT22;38045;52.988;6.536;2023-04-15T08:16:34;9.10;99.90
52034;DHT22;38045;52.988;6.536;2023-04-15T08:18:59;9.20;99.90
52034;DHT22;38045;52.988;6.536;2023-04-15T08:21:25;9.20;99.90
52034;DHT22;38045;52.988;6.536;2023-04-15T08:23:52;9.40;99.90
52034;DHT22;38045;52.988;6.536;2023-04-15T08:26:19;9.40;99.90
52034;DHT22;38045;52.988;6.536;2023-04-15T08:28:45;9.40;99.90
52034;DHT22;38045;52.988;6.536;2023-04-15T08:31:13;9.50;99.90
52034;DHT22;38045;52.988;6.536;2023-04-15T08:33:39;9.50;99.90
52034;DHT22;38045;52.988;6.536;2023-04-15T08:36:04;9.40;99.90
52034;DHT22;38045;52.988;6.536;2023-04-15T08:38:31;9.30;99.90
52034;DHT22;38045;52.988;6.536;2023-04-15T08:40:57;9.60;99.90
52034;DHT22;38045;52.988;6.536;2023-04-15T08:43:27;9.20;99.90
52034;DHT22;38045;52.988;6.536;2023-04-15T08:45:55;9.20;99.90
52034;DHT22;38045;52.988;6.536;2023-04-15T08:48:27;9.10;99.90
52034;DHT22;38045;52.988;6.536;2023-04-15T08:50:54;9.10;99.90
52034;DHT22;38045;52.988;6.536;2023-04-15T08:53:19;9.10;99.90
52034;DHT22;38045;52.988;6.536;2023-04-15T08:55:47;9.00;99.90
52034;DHT22;38045;52.988;6.536;2023-04-15T08:58:15;9.00;99.90
52034;DHT22;38045;52.988;6.536;2023-04-15T09:00:41;9.00;99.90
52034;DHT22;38045;52.988;6.536;2023-04-15T09:03:08;9.00;99.90
52034;DHT22;38045;52.988;6.536;2023-04-15T09:05:37;8.90;99.90
52034;DHT22;38045;52.988;6.536;2023-04-15T09:08:03;8.80;99.90
52034;DHT22;38045;52.988;6.536;2023-04-15T09:10:30;8.80;99.90
52034;DHT22;38045;52.988;6.536;2023-04-15T09:12:56;8.80;99.90
52034;DHT22;38045;52.988;6.536;2023-04-15T09:15:24;8.80;99.90
52034;DHT22;38045;52.988;6.536;2023-04-15T09:17:52;8.80;99.90
52034;DHT22;38045;52.988;6.536;2023-04-15T09:20:19;8.80;99.90
52034;DHT22;38045;52.988;6.536;2023-04-15T09:22:46;8.70;99.90
52034;DHT22;38045;52.988;6.536;2023-04-15T09:28:07;8.70;99.90
52034;DHT22;38045;52.988;6.536;2023-04-15T09:30:33;8.70;99.90
52034;DHT22;38045;52.988;6.536;2023-04-15T09:33:00;8.70;99.90
52034;DHT22;38045;52.988;6.536;2023-04-15T09:35:35;8.80;99.90
52034;DHT22;38045;52.988;6.536;2023-04-15T09:38:05;8.90;99.90
52034;DHT22;38045;52.988;6.536;2023-04-15T09:43:01;9.00;99.90
52034;DHT22;38045;52.988;6.536;2023-04-15T09:45:27;9.00;99.90
52034;DHT22;38045;52.988;6.536;2023-04-15T09:47:53;9.00;99.90
52034;DHT22;38045;52.988;6.536;2023-04-15T09:50:19;9.00;99.90
52034;DHT22;38045;52.988;6.536;2023-04-15T09:52:46;9.00;99.90
52034;DHT22;38045;52.988;6.536;2023-04-15T09:55:12;9.00;99.90
52034;DHT22;38045;52.988;6.536;2023-04-15T09:57:38;9.00;99.90
52034;DHT22;38045;52.988;6.536;2023-04-15T10:00:09;9.00;99.90
52034;DHT22;38045;52.988;6.536;2023-04-15T10:02:36;9.00;99.90
52034;DHT22;38045;52.988;6.536;2023-04-15T10:05:04;9.10;99.90
52034;DHT22;38045;52.988;6.536;2023-04-15T10:07:31;9.20;99.90
52034;DHT22;38045;52.988;6.536;2023-04-15T10:09:58;9.40;99.90
52034;DHT22;38045;52.988;6.536;2023-04-15T10:12:26;9.40;99.90
52034;DHT22;38045;52.988;6.536;2023-04-15T10:14:57;9.40;99.90
52034;DHT22;38045;52.988;6.536;2023-04-15T10:17:26;9.40;99.90
52034;DHT22;38045;52.988;6.536;2023-04-15T10:20:00;9.40;99.90
52034;DHT22;38045;52.988;6.536;2023-04-15T10:22:27;9.40;99.90
52034;DHT22;38045;52.988;6.536;2023-04-15T10:24:54;9.30;99.90
52034;DHT22;38045;52.988;6.536;2023-04-15T10:27:20;9.30;99.90
52034;DHT22;38045;52.988;6.536;2023-04-15T10:29:48;9.30;99.90
52034;DHT22;38045;52.988;6.536;2023-04-15T10:32:16;9.30;99.90
52034;DHT22;38045;52.988;6.536;2023-04-15T10:34:45;9.40;99.90
52034;DHT22;38045;52.988;6.536;2023-04-15T10:37:10;9.40;99.90
52034;DHT22;38045;52.988;6.536;2023-04-15T10:42:12;9.40;99.90
52034;DHT22;38045;52.988;6.536;2023-04-15T10:44:41;9.40;99.90
52034;DHT22;38045;52.988;6.536;2023-04-15T10:47:14;9.40;99.90
52034;DHT22;38045;52.988;6.536;2023-04-15T10:49:57;9.40;99.90
52034;DHT22;38045;52.988;6.536;2023-04-15T10:52:25;9.40;99.90
52034;DHT22;38045;52.988;6.536;2023-04-15T10:55:21;9.30;99.90
52034;DHT22;38045;52.988;6.536;2023-04-15T10:57:52;9.30;99.90
52034;DHT22;38045;52.988;6.536;2023-04-15T11:00:19;9.40;99.90
52034;DHT22;38045;52.988;6.536;2023-04-15T11:02:46;9.40;99.90
52034;DHT22;38045;52.988;6.536;2023-04-15T11:05:13;9.40;99.90
52034;DHT22;38045;52.988;6.536;2023-04-15T11:07:56;9.40;99.90
52034;DHT22;38045;52.988;6.536;2023-04-15T11:13:25;9.30;99.90
52034;DHT22;38045;52.988;6.536;2023-04-15T11:15:55;9.30;99.90
52034;DHT22;38045;52.988;6.536;2023-04-15T11:18:28;9.30;99.90
52034;DHT22;38045;52.988;6.536;2023-04-15T11:21:00;9.30;99.90
52034;DHT22;38045;52.988;6.536;2023-04-15T11:23:44;9.30;99.90
52034;DHT22;38045;52.988;6.536;2023-04-15T11:26:12;9.20;99.90
52034;DHT22;38045;52.988;6.536;2023-04-15T11:28:46;9.30;99.90
52034;DHT22;38045;52.988;6.536;2023-04-15T11:31:14;9.30;99.90
52034;DHT22;38045;52.988;6.536;2023-04-15T11:33:57;9.30;99.90
52034;DHT22;38045;52.988;6.536;2023-04-15T11:36:28;9.20;99.90
52034;DHT22;38045;52.988;6.536;2023-04-15T11:38:56;9.30;99.90
52034;DHT22;38045;52.988;6.536;2023-04-15T11:41:22;9.30;99.90
52034;DHT22;38045;52.988;6.536;2023-04-15T11:43:49;9.30;99.90
52034;DHT22;38045;52.988;6.536;2023-04-15T11:46:15;9.30;99.90
52034;DHT22;38045;52.988;6.536;2023-04-15T11:48:43;9.30;99.90
52034;DHT22;38045;52.988;6.536;2023-04-15T11:51:10;9.30;99.90
52034;DHT22;38045;52.988;6.536;2023-04-15T11:53:46;9.30;99.90
52034;DHT22;38045;52.988;6.536;2023-04-15T11:56:22;9.30;99.90
52034;DHT22;38045;52.988;6.536;2023-04-15T11:58:51;9.30;99.90
52034;DHT22;38045;52.988;6.536;2023-04-15T12:01:17;9.40;99.90
52034;DHT22;38045;52.988;6.536;2023-04-15T12:03:47;9.50;99.90
52034;DHT22;38045;52.988;6.536;2023-04-15T12:06:21;9.50;99.90
52034;DHT22;38045;52.988;6.536;2023-04-15T12:11:27;9.60;99.90
52034;DHT22;38045;52.988;6.536;2023-04-15T12:13:59;9.60;99.90
52034;DHT22;38045;52.988;6.536;2023-04-15T12:16:27;9.60;99.90
52034;DHT22;38045;52.988;6.536;2023-04-15T12:18:55;9.60;99.90
52034;DHT22;38045;52.988;6.536;2023-04-15T12:21:22;9.60;99.90
52034;DHT22;38045;52.988;6.536;2023-04-15T12:23:55;9.50;99.90
52034;DHT22;38045;52.988;6.536;2023-04-15T12:26:50;9.40;99.90
52034;DHT22;38045;52.988;6.536;2023-04-15T12:29:15;9.30;99.90
52034;DHT22;38045;52.988;6.536;2023-04-15T12:31:49;9.30;99.90
52034;DHT22;38045;52.988;6.536;2023-04-15T12:34:16;9.30;99.90
52034;DHT22;38045;52.988;6.536;2023-04-15T12:36:41;9.30;99.90
52034;DHT22;38045;52.988;6.536;2023-04-15T12:39:07;9.20;99.90
52034;DHT22;38045;52.988;6.536;2023-04-15T12:41:33;9.10;99.90
52034;DHT22;38045;52.988;6.536;2023-04-15T12:43:59;9.10;99.90
52034;DHT22;38045;52.988;6.536;2023-04-15T12:46:25;9.20;99.90
52034;DHT22;38045;52.988;6.536;2023-04-15T12:48:51;9.20;99.90
52034;DHT22;38045;52.988;6.536;2023-04-15T12:51:17;9.10;99.90
52034;DHT22;38045;52.988;6.536;2023-04-15T12:53:43;9.10;99.90
52034;DHT22;38045;52.988;6.536;2023-04-15T12:56:09;9.10;99.90
52034;DHT22;38045;52.988;6.536;2023-04-15T12:58:35;9.10;99.90
52034;DHT22;38045;52.988;6.536;2023-04-15T13:01:01;9.20;99.90
52034;DHT22;38045;52.988;6.536;2023-04-15T13:03:26;9.10;99.90
52034;DHT22;38045;52.988;6.536;2023-04-15T13:05:52;9.10;99.90
52034;DHT22;38045;52.988;6.536;2023-04-15T13:08:17;9.10;99.90
52034;DHT22;38045;52.988;6.536;2023-04-15T13:10:43;9.10;99.90
52034;DHT22;38045;52.988;6.536;2023-04-15T13:13:09;9.10;99.90
52034;DHT22;38045;52.988;6.536;2023-04-15T13:15:34;9.10;99.90
52034;DHT22;38045;52.988;6.536;2023-04-15T13:18:00;9.10;99.90
52034;DHT22;38045;52.988;6.536;2023-04-15T13:20:26;9.10;99.90
52034;DHT22;38045;52.988;6.536;2023-04-15T13:22:52;9.10;99.90
52034;DHT22;38045;52.988;6.536;2023-04-15T13:25:18;9.10;99.90
52034;DHT22;38045;52.988;6.536;2023-04-15T13:27:44;9.10;99.90
52034;DHT22;38045;52.988;6.536;2023-04-15T13:30:10;9.00;99.90
52034;DHT22;38045;52.988;6.536;2023-04-15T13:32:36;9.00;99.90
52034;DHT22;38045;52.988;6.536;2023-04-15T13:35:01;8.90;99.90
52034;DHT22;38045;52.988;6.536;2023-04-15T13:37:28;8.90;99.90
52034;DHT22;38045;52.988;6.536;2023-04-15T13:39:54;8.80;99.90
52034;DHT22;38045;52.988;6.536;2023-04-15T13:42:21;8.90;99.90
52034;DHT22;38045;52.988;6.536;2023-04-15T13:44:48;8.90;99.90
52034;DHT22;38045;52.988;6.536;2023-04-15T13:47:13;8.80;99.90
52034;DHT22;38045;52.988;6.536;2023-04-15T13:49:40;8.80;99.90
52034;DHT22;38045;52.988;6.536;2023-04-15T13:52:06;8.80;99.90
52034;DHT22;38045;52.988;6.536;2023-04-15T13:54:31;8.80;99.90
52034;DHT22;38045;52.988;6.536;2023-04-15T13:56:57;8.70;99.90
52034;DHT22;38045;52.988;6.536;2023-04-15T13:59:23;8.70;99.90
52034;DHT22;38045;52.988;6.536;2023-04-15T14:01:48;8.80;99.90
52034;DHT22;38045;52.988;6.536;2023-04-15T14:04:14;8.70;99.90
52034;DHT22;38045;52.988;6.536;2023-04-15T14:06:39;8.70;99.90
52034;DHT22;38045;52.988;6.536;2023-04-15T14:09:05;8.70;99.90
52034;DHT22;38045;52.988;6.536;2023-04-15T14:11:31;8.60;99.90
52034;DHT22;38045;52.988;6.536;2023-04-15T14:13:57;8.60;99.90
52034;DHT22;38045;52.988;6.536;2023-04-15T14:16:22;8.60;99.90
52034;DHT22;38045;52.988;6.536;2023-04-15T14:18:48;8.60;99.90
52034;DHT22;38045;52.988;6.536;2023-04-15T14:21:13;8.60;99.90
52034;DHT22;38045;52.988;6.536;2023-04-15T14:23:40;8.70;99.90
52034;DHT22;38045;52.988;6.536;2023-04-15T14:26:05;8.70;99.90
52034;DHT22;38045;52.988;6.536;2023-04-15T14:28:31;8.60;99.90
52034;DHT22;38045;52.988;6.536;2023-04-15T14:30:56;8.60;99.90
52034;DHT22;38045;52.988;6.536;2023-04-15T14:33:22;8.60;99.90
52034;DHT22;38045;52.988;6.536;2023-04-15T14:35:49;8.60;99.90
52034;DHT22;38045;52.988;6.536;2023-04-15T14:38:15;8.60;99.90
52034;DHT22;38045;52.988;6.536;2023-04-15T14:40:40;8.50;99.90
52034;DHT22;38045;52.988;6.536;2023-04-15T14:43:06;8.50;99.90
52034;DHT22;38045;52.988;6.536;2023-04-15T14:45:32;8.50;99.90
52034;DHT22;38045;52.988;6.536;2023-04-15T14:47:58;8.50;99.90
52034;DHT22;38045;52.988;6.536;2023-04-15T14:50:24;8.50;99.90
52034;DHT22;38045;52.988;6.536;2023-04-15T14:52:49;8.50;99.90
52034;DHT22;38045;52.988;6.536;2023-04-15T14:55:15;8.50;99.90
52034;DHT22;38045;52.988;6.536;2023-04-15T14:57:41;8.50;99.90
52034;DHT22;38045;52.988;6.536;2023-04-15T15:00:09;8.50;99.90
52034;DHT22;38045;52.988;6.536;2023-04-15T15:02:35;8.50;99.90
52034;DHT22;38045;52.988;6.536;2023-04-15T15:05:01;8.50;99.90
52034;DHT22;38045;52.988;6.536;2023-04-15T15:07:27;8.50;99.90
52034;DHT22;38045;52.988;6.536;2023-04-15T15:09:53;8.50;99.90
52034;DHT22;38045;52.988;6.536;2023-04-15T15:12:19;8.50;99.90
52034;DHT22;38045;52.988;6.536;2023-04-15T15:14:47;8.50;99.90
52034;DHT22;38045;52.988;6.536;2023-04-15T15:17:13;8.50;99.90
52034;DHT22;38045;52.988;6.536;2023-04-15T15:19:38;8.40;99.90
52034;DHT22;38045;52.988;6.536;2023-04-15T15:22:04;8.40;99.90
52034;DHT22;38045;52.988;6.536;2023-04-15T15:24:30;8.40;99.90
52034;DHT22;38045;52.988;6.536;2023-04-15T15:26:55;8.40;99.90
52034;DHT22;38045;52.988;6.536;2023-04-15T15:29:22;8.40;99.90
52034;DHT22;38045;52.988;6.536;2023-04-15T15:31:47;8.30;99.90
52034;DHT22;38045;52.988;6.536;2023-04-15T15:34:14;8.30;99.90
52034;DHT22;38045;52.988;6.536;2023-04-15T15:36:40;8.30;99.90
52034;DHT22;38045;52.988;6.536;2023-04-15T15:39:06;8.30;99.90
52034;DHT22;38045;52.988;6.536;2023-04-15T15:41:31;8.30;99.90
52034;DHT22;38045;52.988;6.536;2023-04-15T15:43:57;8.20;99.90
52034;DHT22;38045;52.988;6.536;2023-04-15T15:46:23;8.20;99.90
52034;DHT22;38045;52.988;6.536;2023-04-15T15:48:50;8.20;99.90
52034;DHT22;38045;52.988;6.536;2023-04-15T15:51:16;8.20;99.90
52034;DHT22;38045;52.988;6.536;2023-04-15T15:53:42;8.20;99.90
52034;DHT22;38045;52.988;6.536;2023-04-15T15:56:09;8.20;99.90